Lobo

Go HERE for most recent data if this page is not up to date.

Jump to table bottom
Date/Time Temp deg F RH % 24 Hr Snow (in) Snow Depth (in) H2O (in)
05/30 14:00 65.5 34 -0.0 23.8 0.00
05/30 13:00 66.3 35 -0.0 24.1 0.00
05/30 12:00 62.9 41 -0.2 24.2 0.00
05/30 11:00 59.3 46 -0.0 25.3 0.00
05/30 10:00 54.2 54 0.2 25.9 0.00
05/30 09:00 52.1 58 0.4 26.3 0.00
05/30 08:00 50.9 61 0.3 26.1 0.00
05/30 07:00 50.2 57 0.4 26.4 0.00
05/30 06:00 48.9 55 0.3 26.4 0.00
05/30 05:00 48.5 70 0.2 26.2 0.00
05/30 04:00 50.8 61 0.3 26.1 0.00
05/30 03:00 50.4 61 0.3 26.3 0.00
05/30 02:00 50.1 64 0.4 26.4 0.00
05/30 01:00 48.0 67 0.4 26.5 0.01
05/30 00:00 49.0 76 0.1 26.0 0.20
05/29 23:00 52.2 72 0.0 25.6 0.06
05/29 22:00 52.8 58 0.2 26.4 0.00
05/29 21:00 54.3 59 0.2 26.4 0.00
05/29 20:00 56.6 55 0.2 26.2 0.00
05/29 19:00 57.8 52 0.1 26.3 0.00
05/29 18:00 60.2 51 0.2 26.2 0.00
05/29 17:00 61.0 44 0.0 25.9 0.00
05/29 16:00 61.1 41 -0.1 25.8 0.00
05/29 15:00 59.5 43 -0.3 26.4 0.00
05/29 14:00 59.0 46 -0.3 26.4 0.00
05/29 13:00 55.0 43 0.0 27.3 0.00
05/29 12:00 52.9 47 0.0 27.8 0.00
05/29 11:00 55.0 44 -0.0 27.9 0.00
05/29 10:00 57.0 40 0.0 28.4 0.00
05/29 09:00 54.1 34 0.3 28.9 0.00
05/29 08:00 51.8 43 0.2 29.1 0.00
05/29 07:00 50.7 40 0.2 29.1 0.00
05/29 06:00 50.8 40 0.3 29.3 0.00
05/29 05:00 50.1 44 0.2 29.0 0.00
05/29 04:00 50.8 43 0.3 29.1 0.00
05/29 03:00 50.9 42 0.3 29.3 0.00
05/29 02:00 50.7 46 0.2 28.9 0.00
05/29 01:00 51.2 47 0.3 29.1 0.00
05/29 00:00 51.4 49 0.2 28.8 0.00
.